Healdsburg, CA

5:22 AM PDT on July 23, 2016 (GMT -0700)
Healdsburg HS | | Change Station

Elev 148 ft 38.62 °N, 122.87 °W | Updated 9 minutes ago

Clear
Clear
56.1 °F
Feels Like 56.1 °F
N
0.0
Wind Variable Wind from North

Today
High -- | Low -- °F
--% Chance of Precip.
Yesterday
High -- | Low -- °F
Precip. -- in
Pressure 29.93 in
Visibility 9.0 miles
Clouds Clear
Dew Point 43 °F
Humidity 67%
Rainfall Not available.
Snow Depth Not available.
6:05 AM 8:29 PM
Waning Gibbous, 85% visible
METAR KSTS 231153Z AUTO 00000KT 9SM CLR 11/09 A2995 RMK AO2 SLP134 T01110094 10167 20111 57008
Pressure 29.93 in
Visibility 9.0 miles
Clouds Clear
Dew Point 43 °F
Humidity 67%
Rainfall Not available.
Snow Depth Not available.
6:05 AM 8:29 PM
Waning Gibbous, 85% visible
METAR KSTS 231153Z AUTO 00000KT 9SM CLR 11/09 A2995 RMK AO2 SLP134 T01110094 10167 20111 57008

10-Day Weather Forecast

Almanac

Astronomy

Jul. 23, 2016 Rise Set
Actual Time
Civil Twilight
Nautical Twilight
Astronomical Twilight
Moon
Length of Visible Light
Length of Day
Tomorrow will be .
, % of the Moon is Illuminated

Today's Extremes

State Highs State Lows

Community

WunderPhotos

Upload Photos

1,926,813 photos uploaded!

WunderBlog® & News

Nearby

Air Quality

  Air Quality AQ Index Pollutant
Not available.

Snow Depth

Station Depth Elevation

Earthquake Activity

City Distance Mag. Time & Date
Minimum magnitude displayed is 2.5.

Coastal Water Temperatures

Place Temperature

Stations

Nearby Weather Stations

Station Location Temp. Windchill Dew Point Humidity Wind Precip. Elev Updated Type
                   

Watches & Warnings

There are currently no watches in effect.